sensor_id;sensor_type;location;lat;lon;timestamp;P1;durP1;ratioP1;P2;durP2;ratioP2
11453;SDS011;5783;55.174;61.310;2023-04-02T00:16:31;3.10;;;1.97;;
11453;SDS011;5783;55.174;61.310;2023-04-02T00:19:03;3.37;;;2.30;;
11453;SDS011;5783;55.174;61.310;2023-04-02T00:21:33;2.53;;;2.10;;
11453;SDS011;5783;55.174;61.310;2023-04-02T00:26:53;2.10;;;1.90;;
11453;SDS011;5783;55.174;61.310;2023-04-02T00:29:23;2.57;;;1.93;;
11453;SDS011;5783;55.174;61.310;2023-04-02T00:31:52;3.17;;;2.30;;
11453;SDS011;5783;55.174;61.310;2023-04-02T00:37:14;2.10;;;1.90;;
11453;SDS011;5783;55.174;61.310;2023-04-02T00:39:43;3.77;;;2.30;;
11453;SDS011;5783;55.174;61.310;2023-04-02T00:42:13;2.63;;;2.10;;
11453;SDS011;5783;55.174;61.310;2023-04-02T00:44:44;3.13;;;2.27;;
11453;SDS011;5783;55.174;61.310;2023-04-02T00:52:56;2.97;;;2.20;;
11453;SDS011;5783;55.174;61.310;2023-04-02T00:58:00;3.27;;;2.33;;
11453;SDS011;5783;55.174;61.310;2023-04-02T01:00:32;3.03;;;2.40;;
11453;SDS011;5783;55.174;61.310;2023-04-02T01:05:56;3.17;;;2.23;;
11453;SDS011;5783;55.174;61.310;2023-04-02T01:17:59;2.53;;;2.20;;
11453;SDS011;5783;55.174;61.310;2023-04-02T01:32:25;2.63;;;2.30;;
11453;SDS011;5783;55.174;61.310;2023-04-02T01:34:56;2.30;;;2.10;;
11453;SDS011;5783;55.174;61.310;2023-04-02T01:45:58;2.57;;;2.00;;
11453;SDS011;5783;55.174;61.310;2023-04-02T01:48:29;3.73;;;1.93;;
11453;SDS011;5783;55.174;61.310;2023-04-02T01:50:59;3.07;;;2.20;;
11453;SDS011;5783;55.174;61.310;2023-04-02T01:53:30;4.20;;;2.57;;
11453;SDS011;5783;55.174;61.310;2023-04-02T01:56:00;2.57;;;2.30;;
11453;SDS011;5783;55.174;61.310;2023-04-02T01:58:31;2.70;;;2.20;;
11453;SDS011;5783;55.174;61.310;2023-04-02T02:03:34;4.10;;;2.63;;
11453;SDS011;5783;55.174;61.310;2023-04-02T02:06:04;2.90;;;2.30;;
11453;SDS011;5783;55.174;61.310;2023-04-02T02:11:42;2.70;;;2.30;;
11453;SDS011;5783;55.174;61.310;2023-04-02T02:14:13;3.23;;;2.43;;
11453;SDS011;5783;55.174;61.310;2023-04-02T02:17:02;3.33;;;2.60;;
11453;SDS011;5783;55.174;61.310;2023-04-02T02:19:37;4.80;;;2.40;;
11453;SDS011;5783;55.174;61.310;2023-04-02T02:22:10;2.80;;;2.40;;
11453;SDS011;5783;55.174;61.310;2023-04-02T02:24:59;3.47;;;2.27;;
11453;SDS011;5783;55.174;61.310;2023-04-02T02:44:50;2.67;;;2.17;;
11453;SDS011;5783;55.174;61.310;2023-04-02T02:47:22;3.40;;;2.50;;
11453;SDS011;5783;55.174;61.310;2023-04-02T02:50:13;3.13;;;2.30;;
11453;SDS011;5783;55.174;61.310;2023-04-02T02:53:07;2.83;;;2.30;;
11453;SDS011;5783;55.174;61.310;2023-04-02T02:55:34;2.80;;;2.13;;
11453;SDS011;5783;55.174;61.310;2023-04-02T02:58:05;3.90;;;2.50;;
11453;SDS011;5783;55.174;61.310;2023-04-02T03:00:36;4.83;;;2.80;;
11453;SDS011;5783;55.174;61.310;2023-04-02T03:03:06;3.97;;;2.90;;
11453;SDS011;5783;55.174;61.310;2023-04-02T03:05:38;3.17;;;2.53;;
11453;SDS011;5783;55.174;61.310;2023-04-02T03:08:10;2.60;;;2.40;;
11453;SDS011;5783;55.174;61.310;2023-04-02T03:13:48;3.40;;;2.63;;
11453;SDS011;5783;55.174;61.310;2023-04-02T03:16:22;3.93;;;2.60;;
11453;SDS011;5783;55.174;61.310;2023-04-02T03:19:16;3.17;;;2.53;;
11453;SDS011;5783;55.174;61.310;2023-04-02T03:24:52;2.90;;;2.50;;
11453;SDS011;5783;55.174;61.310;2023-04-02T03:27:25;4.33;;;2.70;;
11453;SDS011;5783;55.174;61.310;2023-04-02T03:30:28;3.83;;;3.03;;
11453;SDS011;5783;55.174;61.310;2023-04-02T03:32:46;3.27;;;2.60;;
11453;SDS011;5783;55.174;61.310;2023-04-02T03:44:44;3.83;;;3.00;;
11453;SDS011;5783;55.174;61.310;2023-04-02T03:47:34;4.33;;;3.17;;
11453;SDS011;5783;55.174;61.310;2023-04-02T03:52:57;3.93;;;3.00;;
11453;SDS011;5783;55.174;61.310;2023-04-02T04:07:04;3.80;;;3.00;;
11453;SDS011;5783;55.174;61.310;2023-04-02T04:09:36;4.10;;;3.40;;
11453;SDS011;5783;55.174;61.310;2023-04-02T04:15:19;4.53;;;3.40;;
11453;SDS011;5783;55.174;61.310;2023-04-02T04:21:00;4.30;;;3.27;;
11453;SDS011;5783;55.174;61.310;2023-04-02T04:23:32;4.67;;;3.30;;
11453;SDS011;5783;55.174;61.310;2023-04-02T04:26:07;6.47;;;3.40;;
11453;SDS011;5783;55.174;61.310;2023-04-02T04:38:06;6.47;;;3.13;;
11453;SDS011;5783;55.174;61.310;2023-04-02T04:46:40;5.33;;;3.03;;
11453;SDS011;5783;55.174;61.310;2023-04-02T04:54:51;3.60;;;2.73;;
11453;SDS011;5783;55.174;61.310;2023-04-02T04:57:58;3.57;;;2.90;;
11453;SDS011;5783;55.174;61.310;2023-04-02T05:00:13;5.03;;;2.57;;
11453;SDS011;5783;55.174;61.310;2023-04-02T05:05:36;5.60;;;3.03;;
11453;SDS011;5783;55.174;61.310;2023-04-02T05:19:30;17.33;;;11.77;;
11453;SDS011;5783;55.174;61.310;2023-04-02T05:33:43;20.83;;;10.77;;
11453;SDS011;5783;55.174;61.310;2023-04-02T05:36:32;17.90;;;9.70;;
11453;SDS011;5783;55.174;61.310;2023-04-02T05:39:01;19.60;;;12.27;;
11453;SDS011;5783;55.174;61.310;2023-04-02T05:47:33;15.00;;;9.20;;
11453;SDS011;5783;55.174;61.310;2023-04-02T05:59:14;18.63;;;12.67;;
11453;SDS011;5783;55.174;61.310;2023-04-02T06:13:43;12.70;;;6.90;;
11453;SDS011;5783;55.174;61.310;2023-04-02T06:16:13;13.07;;;5.90;;
11453;SDS011;5783;55.174;61.310;2023-04-02T06:18:43;9.80;;;5.57;;
11453;SDS011;5783;55.174;61.310;2023-04-02T06:21:13;8.47;;;4.97;;
11453;SDS011;5783;55.174;61.310;2023-04-02T06:26:35;10.07;;;4.87;;
11453;SDS011;5783;55.174;61.310;2023-04-02T06:29:26;10.80;;;4.60;;
11453;SDS011;5783;55.174;61.310;2023-04-02T06:31:59;8.77;;;4.30;;
11453;SDS011;5783;55.174;61.310;2023-04-02T06:34:29;5.57;;;3.90;;
11453;SDS011;5783;55.174;61.310;2023-04-02T06:37:02;6.20;;;3.80;;
11453;SDS011;5783;55.174;61.310;2023-04-02T06:39:33;6.00;;;3.70;;
11453;SDS011;5783;55.174;61.310;2023-04-02T06:44:52;8.97;;;3.70;;
11453;SDS011;5783;55.174;61.310;2023-04-02T06:59:21;10.63;;;4.23;;
11453;SDS011;5783;55.174;61.310;2023-04-02T07:05:01;14.90;;;3.70;;
11453;SDS011;5783;55.174;61.310;2023-04-02T07:07:33;11.83;;;3.90;;
11453;SDS011;5783;55.174;61.310;2023-04-02T07:10:03;14.20;;;4.27;;
11453;SDS011;5783;55.174;61.310;2023-04-02T07:12:34;12.87;;;4.30;;
11453;SDS011;5783;55.174;61.310;2023-04-02T07:15:03;14.77;;;4.40;;
11453;SDS011;5783;55.174;61.310;2023-04-02T07:17:33;11.53;;;4.23;;
11453;SDS011;5783;55.174;61.310;2023-04-02T07:20:02;9.17;;;3.77;;
11453;SDS011;5783;55.174;61.310;2023-04-02T07:22:31;7.20;;;4.03;;
11453;SDS011;5783;55.174;61.310;2023-04-02T07:25:00;11.07;;;4.03;;
11453;SDS011;5783;55.174;61.310;2023-04-02T07:27:30;13.47;;;3.80;;
11453;SDS011;5783;55.174;61.310;2023-04-02T07:29:59;10.83;;;4.07;;
11453;SDS011;5783;55.174;61.310;2023-04-02T07:32:29;10.47;;;3.60;;
11453;SDS011;5783;55.174;61.310;2023-04-02T07:34:58;8.00;;;3.77;;
11453;SDS011;5783;55.174;61.310;2023-04-02T07:37:28;11.97;;;3.77;;
11453;SDS011;5783;55.174;61.310;2023-04-02T07:39:57;9.67;;;4.27;;
11453;SDS011;5783;55.174;61.310;2023-04-02T07:42:27;10.47;;;4.20;;
11453;SDS011;5783;55.174;61.310;2023-04-02T07:44:56;9.63;;;3.53;;
11453;SDS011;5783;55.174;61.310;2023-04-02T07:47:25;12.37;;;3.47;;
11453;SDS011;5783;55.174;61.310;2023-04-02T07:49:54;9.87;;;3.73;;
11453;SDS011;5783;55.174;61.310;2023-04-02T07:52:23;8.23;;;3.63;;
11453;SDS011;5783;55.174;61.310;2023-04-02T07:54:52;11.67;;;3.70;;
11453;SDS011;5783;55.174;61.310;2023-04-02T07:57:22;16.40;;;4.40;;
11453;SDS011;5783;55.174;61.310;2023-04-02T07:59:51;13.47;;;3.90;;
11453;SDS011;5783;55.174;61.310;2023-04-02T08:02:21;10.90;;;3.67;;
11453;SDS011;5783;55.174;61.310;2023-04-02T08:04:50;12.23;;;4.47;;
11453;SDS011;5783;55.174;61.310;2023-04-02T08:07:20;27.17;;;4.67;;
11453;SDS011;5783;55.174;61.310;2023-04-02T08:09:49;36.83;;;5.83;;
11453;SDS011;5783;55.174;61.310;2023-04-02T08:12:18;26.13;;;4.70;;
11453;SDS011;5783;55.174;61.310;2023-04-02T08:14:47;15.23;;;4.33;;
11453;SDS011;5783;55.174;61.310;2023-04-02T08:17:16;8.50;;;3.50;;
11453;SDS011;5783;55.174;61.310;2023-04-02T08:19:46;9.73;;;3.43;;
11453;SDS011;5783;55.174;61.310;2023-04-02T08:22:15;8.80;;;3.30;;
11453;SDS011;5783;55.174;61.310;2023-04-02T08:24:45;6.07;;;3.20;;
11453;SDS011;5783;55.174;61.310;2023-04-02T08:27:14;7.87;;;3.53;;
11453;SDS011;5783;55.174;61.310;2023-04-02T08:29:43;5.67;;;3.03;;
11453;SDS011;5783;55.174;61.310;2023-04-02T08:32:11;5.40;;;3.00;;
11453;SDS011;5783;55.174;61.310;2023-04-02T08:34:43;6.80;;;3.50;;
11453;SDS011;5783;55.174;61.310;2023-04-02T08:37:12;7.03;;;3.70;;
11453;SDS011;5783;55.174;61.310;2023-04-02T08:39:42;7.80;;;3.30;;
11453;SDS011;5783;55.174;61.310;2023-04-02T08:48:10;9.47;;;3.03;;
11453;SDS011;5783;55.174;61.310;2023-04-02T08:50:42;12.07;;;2.70;;
11453;SDS011;5783;55.174;61.310;2023-04-02T09:08:02;7.27;;;3.13;;
11453;SDS011;5783;55.174;61.310;2023-04-02T09:13:25;4.93;;;2.60;;
11453;SDS011;5783;55.174;61.310;2023-04-02T09:25:04;6.00;;;2.87;;
11453;SDS011;5783;55.174;61.310;2023-04-02T09:27:35;7.87;;;3.07;;
11453;SDS011;5783;55.174;61.310;2023-04-02T09:33:12;6.07;;;2.93;;
11453;SDS011;5783;55.174;61.310;2023-04-02T09:38:31;5.23;;;3.17;;
11453;SDS011;5783;55.174;61.310;2023-04-02T09:41:01;4.83;;;3.23;;
11453;SDS011;5783;55.174;61.310;2023-04-02T09:51:43;6.27;;;3.20;;
11453;SDS011;5783;55.174;61.310;2023-04-02T09:57:03;6.73;;;3.20;;
11453;SDS011;5783;55.174;61.310;2023-04-02T09:59:32;6.67;;;3.00;;
11453;SDS011;5783;55.174;61.310;2023-04-02T10:02:02;5.60;;;3.10;;
11453;SDS011;5783;55.174;61.310;2023-04-02T10:25:00;9.03;;;3.80;;
11453;SDS011;5783;55.174;61.310;2023-04-02T10:36:21;8.63;;;4.93;;
11453;SDS011;5783;55.174;61.310;2023-04-02T10:41:48;9.90;;;5.27;;
11453;SDS011;5783;55.174;61.310;2023-04-02T10:55:58;16.93;;;8.60;;
11453;SDS011;5783;55.174;61.310;2023-04-02T10:58:30;13.63;;;8.70;;
11453;SDS011;5783;55.174;61.310;2023-04-02T11:03:57;14.73;;;7.63;;
11453;SDS011;5783;55.174;61.310;2023-04-02T11:14:59;15.73;;;6.33;;
11453;SDS011;5783;55.174;61.310;2023-04-02T11:17:30;9.97;;;5.90;;
11453;SDS011;5783;55.174;61.310;2023-04-02T11:23:28;8.93;;;5.10;;
11453;SDS011;5783;55.174;61.310;2023-04-02T11:48:27;7.93;;;4.00;;
11453;SDS011;5783;55.174;61.310;2023-04-02T11:54:20;8.80;;;4.47;;
11453;SDS011;5783;55.174;61.310;2023-04-02T11:59:56;5.87;;;3.90;;
11453;SDS011;5783;55.174;61.310;2023-04-02T12:20:22;7.70;;;3.93;;
11453;SDS011;5783;55.174;61.310;2023-04-02T12:22:53;7.07;;;3.50;;
11453;SDS011;5783;55.174;61.310;2023-04-02T12:30:46;6.77;;;3.27;;
11453;SDS011;5783;55.174;61.310;2023-04-02T12:36:17;7.10;;;3.30;;
11453;SDS011;5783;55.174;61.310;2023-04-02T12:38:58;7.40;;;2.73;;
11453;SDS011;5783;55.174;61.310;2023-04-02T12:44:01;5.77;;;3.13;;
11453;SDS011;5783;55.174;61.310;2023-04-02T12:46:33;6.00;;;3.17;;
11453;SDS011;5783;55.174;61.310;2023-04-02T12:49:04;8.53;;;3.10;;
11453;SDS011;5783;55.174;61.310;2023-04-02T12:51:53;5.40;;;3.00;;
11453;SDS011;5783;55.174;61.310;2023-04-02T12:54:23;8.40;;;3.50;;
11453;SDS011;5783;55.174;61.310;2023-04-02T12:56:52;4.13;;;3.07;;
11453;SDS011;5783;55.174;61.310;2023-04-02T13:05:01;5.80;;;3.70;;
11453;SDS011;5783;55.174;61.310;2023-04-02T13:07:31;8.67;;;3.73;;
11453;SDS011;5783;55.174;61.310;2023-04-02T13:10:03;6.03;;;3.43;;
11453;SDS011;5783;55.174;61.310;2023-04-02T13:12:33;8.23;;;4.00;;
11453;SDS011;5783;55.174;61.310;2023-04-02T13:15:05;5.87;;;3.70;;
11453;SDS011;5783;55.174;61.310;2023-04-02T13:23:35;9.43;;;4.03;;
11453;SDS011;5783;55.174;61.310;2023-04-02T13:31:43;5.73;;;3.50;;
11453;SDS011;5783;55.174;61.310;2023-04-02T13:34:12;8.03;;;3.63;;
11453;SDS011;5783;55.174;61.310;2023-04-02T13:36:43;6.43;;;3.80;;
11453;SDS011;5783;55.174;61.310;2023-04-02T13:39:12;7.83;;;3.57;;
11453;SDS011;5783;55.174;61.310;2023-04-02T13:44:33;6.93;;;4.10;;
11453;SDS011;5783;55.174;61.310;2023-04-02T13:47:03;7.10;;;4.00;;
11453;SDS011;5783;55.174;61.310;2023-04-02T13:49:33;8.73;;;4.13;;
11453;SDS011;5783;55.174;61.310;2023-04-02T13:52:02;9.73;;;4.70;;
11453;SDS011;5783;55.174;61.310;2023-04-02T13:54:32;9.87;;;4.53;;
11453;SDS011;5783;55.174;61.310;2023-04-02T13:57:23;10.67;;;4.50;;
11453;SDS011;5783;55.174;61.310;2023-04-02T13:59:52;10.70;;;4.20;;
11453;SDS011;5783;55.174;61.310;2023-04-02T14:02:23;10.93;;;5.17;;
11453;SDS011;5783;55.174;61.310;2023-04-02T14:07:46;12.57;;;5.17;;
11453;SDS011;5783;55.174;61.310;2023-04-02T14:13:28;10.77;;;5.17;;
11453;SDS011;5783;55.174;61.310;2023-04-02T15:17:22;5.97;;;4.10;;
11453;SDS011;5783;55.174;61.310;2023-04-02T15:19:52;7.87;;;4.20;;
11453;SDS011;5783;55.174;61.310;2023-04-02T15:28:07;7.20;;;3.90;;
11453;SDS011;5783;55.174;61.310;2023-04-02T15:30:55;6.00;;;3.70;;
11453;SDS011;5783;55.174;61.310;2023-04-02T16:11:19;7.63;;;3.80;;
11453;SDS011;5783;55.174;61.310;2023-04-02T16:13:48;5.20;;;3.20;;
11453;SDS011;5783;55.174;61.310;2023-04-02T16:16:21;4.80;;;3.40;;
11453;SDS011;5783;55.174;61.310;2023-04-02T16:22:33;6.73;;;3.70;;
11453;SDS011;5783;55.174;61.310;2023-04-02T16:27:26;5.23;;;3.30;;
11453;SDS011;5783;55.174;61.310;2023-04-02T16:33:07;5.70;;;3.60;;
11453;SDS011;5783;55.174;61.310;2023-04-02T17:17:47;8.27;;;4.30;;
11453;SDS011;5783;55.174;61.310;2023-04-02T17:20:17;5.47;;;3.73;;
11453;SDS011;5783;55.174;61.310;2023-04-02T17:23:08;4.93;;;3.60;;
11453;SDS011;5783;55.174;61.310;2023-04-02T17:25:44;10.17;;;4.00;;
11453;SDS011;5783;55.174;61.310;2023-04-02T17:28:11;6.03;;;3.67;;
11453;SDS011;5783;55.174;61.310;2023-04-02T17:30:43;5.00;;;3.40;;
11453;SDS011;5783;55.174;61.310;2023-04-02T17:33:32;5.80;;;3.63;;
11453;SDS011;5783;55.174;61.310;2023-04-02T17:39:14;5.70;;;3.50;;
11453;SDS011;5783;55.174;61.310;2023-04-02T18:17:20;6.57;;;3.87;;
11453;SDS011;5783;55.174;61.310;2023-04-02T18:50:39;5.67;;;3.30;;
11453;SDS011;5783;55.174;61.310;2023-04-02T18:52:56;6.63;;;3.53;;
11453;SDS011;5783;55.174;61.310;2023-04-02T19:01:43;5.90;;;3.40;;
11453;SDS011;5783;55.174;61.310;2023-04-02T19:04:31;7.80;;;4.23;;
11453;SDS011;5783;55.174;61.310;2023-04-02T19:07:03;6.07;;;4.00;;
11453;SDS011;5783;55.174;61.310;2023-04-02T19:09:53;5.97;;;3.53;;
11453;SDS011;5783;55.174;61.310;2023-04-02T19:12:26;7.17;;;3.60;;
11453;SDS011;5783;55.174;61.310;2023-04-02T19:14:57;5.77;;;4.00;;
11453;SDS011;5783;55.174;61.310;2023-04-02T19:20:03;5.33;;;3.33;;
11453;SDS011;5783;55.174;61.310;2023-04-02T19:43:01;5.63;;;3.50;;
11453;SDS011;5783;55.174;61.310;2023-04-02T19:48:20;5.63;;;3.50;;
11453;SDS011;5783;55.174;61.310;2023-04-02T19:51:10;6.37;;;3.67;;
11453;SDS011;5783;55.174;61.310;2023-04-02T19:53:39;4.53;;;3.07;;
11453;SDS011;5783;55.174;61.310;2023-04-02T19:56:08;5.77;;;3.23;;
11453;SDS011;5783;55.174;61.310;2023-04-02T19:58:38;7.30;;;3.20;;
11453;SDS011;5783;55.174;61.310;2023-04-02T20:01:07;6.13;;;3.37;;
11453;SDS011;5783;55.174;61.310;2023-04-02T20:03:36;5.97;;;3.30;;
11453;SDS011;5783;55.174;61.310;2023-04-02T20:06:05;8.07;;;3.10;;
11453;SDS011;5783;55.174;61.310;2023-04-02T20:08:34;4.77;;;3.00;;
11453;SDS011;5783;55.174;61.310;2023-04-02T20:11:03;6.40;;;3.27;;
11453;SDS011;5783;55.174;61.310;2023-04-02T20:13:33;5.67;;;3.20;;
11453;SDS011;5783;55.174;61.310;2023-04-02T20:16:03;5.90;;;3.20;;
11453;SDS011;5783;55.174;61.310;2023-04-02T20:18:32;5.37;;;3.17;;
11453;SDS011;5783;55.174;61.310;2023-04-02T20:21:02;6.37;;;3.10;;
11453;SDS011;5783;55.174;61.310;2023-04-02T20:23:33;5.77;;;2.93;;
11453;SDS011;5783;55.174;61.310;2023-04-02T20:26:03;5.23;;;3.00;;
11453;SDS011;5783;55.174;61.310;2023-04-02T20:28:33;5.07;;;3.03;;
11453;SDS011;5783;55.174;61.310;2023-04-02T20:36:24;6.77;;;2.90;;
11453;SDS011;5783;55.174;61.310;2023-04-02T20:38:53;4.67;;;2.87;;
11453;SDS011;5783;55.174;61.310;2023-04-02T20:41:23;5.13;;;2.93;;
11453;SDS011;5783;55.174;61.310;2023-04-02T20:43:52;6.37;;;2.67;;
11453;SDS011;5783;55.174;61.310;2023-04-02T20:46:22;4.03;;;2.80;;
11453;SDS011;5783;55.174;61.310;2023-04-02T20:48:51;4.97;;;2.70;;
11453;SDS011;5783;55.174;61.310;2023-04-02T20:51:20;4.23;;;2.83;;
11453;SDS011;5783;55.174;61.310;2023-04-02T20:53:49;4.73;;;3.03;;
11453;SDS011;5783;55.174;61.310;2023-04-02T20:56:19;3.87;;;2.70;;
11453;SDS011;5783;55.174;61.310;2023-04-02T20:59:07;5.40;;;3.17;;
11453;SDS011;5783;55.174;61.310;2023-04-02T21:01:37;4.20;;;2.77;;
11453;SDS011;5783;55.174;61.310;2023-04-02T21:04:06;3.80;;;2.87;;
11453;SDS011;5783;55.174;61.310;2023-04-02T21:06:36;4.47;;;2.90;;
11453;SDS011;5783;55.174;61.310;2023-04-02T21:09:07;4.63;;;3.10;;
11453;SDS011;5783;55.174;61.310;2023-04-02T21:11:56;4.20;;;2.77;;
11453;SDS011;5783;55.174;61.310;2023-04-02T21:14:26;6.70;;;2.93;;
11453;SDS011;5783;55.174;61.310;2023-04-02T21:16:56;5.40;;;2.77;;
11453;SDS011;5783;55.174;61.310;2023-04-02T21:19:25;5.60;;;3.40;;
11453;SDS011;5783;55.174;61.310;2023-04-02T21:21:56;4.97;;;2.90;;
11453;SDS011;5783;55.174;61.310;2023-04-02T21:24:26;5.90;;;3.17;;
11453;SDS011;5783;55.174;61.310;2023-04-02T21:26:55;5.73;;;2.90;;
11453;SDS011;5783;55.174;61.310;2023-04-02T21:29:24;4.63;;;3.03;;
11453;SDS011;5783;55.174;61.310;2023-04-02T21:31:53;4.53;;;2.50;;
11453;SDS011;5783;55.174;61.310;2023-04-02T21:34:22;3.47;;;2.50;;
11453;SDS011;5783;55.174;61.310;2023-04-02T21:36:52;4.23;;;2.77;;
11453;SDS011;5783;55.174;61.310;2023-04-02T21:39:21;4.30;;;2.80;;
11453;SDS011;5783;55.174;61.310;2023-04-02T21:41:52;3.47;;;2.57;;
11453;SDS011;5783;55.174;61.310;2023-04-02T21:44:21;4.20;;;2.87;;
11453;SDS011;5783;55.174;61.310;2023-04-02T21:46:51;3.40;;;2.70;;
11453;SDS011;5783;55.174;61.310;2023-04-02T21:49:21;5.63;;;2.77;;
11453;SDS011;5783;55.174;61.310;2023-04-02T21:51:52;4.57;;;2.80;;
11453;SDS011;5783;55.174;61.310;2023-04-02T21:54:21;4.27;;;2.80;;
11453;SDS011;5783;55.174;61.310;2023-04-02T21:56:50;4.07;;;2.70;;
11453;SDS011;5783;55.174;61.310;2023-04-02T21:59:19;3.80;;;2.67;;
11453;SDS011;5783;55.174;61.310;2023-04-02T22:01:49;4.67;;;2.93;;
11453;SDS011;5783;55.174;61.310;2023-04-02T22:04:20;3.87;;;2.97;;
11453;SDS011;5783;55.174;61.310;2023-04-02T22:06:54;4.00;;;2.67;;
11453;SDS011;5783;55.174;61.310;2023-04-02T22:09:23;5.03;;;2.80;;
11453;SDS011;5783;55.174;61.310;2023-04-02T22:11:55;3.77;;;2.73;;
11453;SDS011;5783;55.174;61.310;2023-04-02T22:14:26;4.63;;;3.10;;
11453;SDS011;5783;55.174;61.310;2023-04-02T22:16:56;4.60;;;2.67;;
11453;SDS011;5783;55.174;61.310;2023-04-02T22:19:26;3.63;;;2.70;;
11453;SDS011;5783;55.174;61.310;2023-04-02T22:21:55;4.77;;;2.63;;
11453;SDS011;5783;55.174;61.310;2023-04-02T22:24:24;4.53;;;2.90;;
11453;SDS011;5783;55.174;61.310;2023-04-02T22:26:53;3.57;;;2.60;;
11453;SDS011;5783;55.174;61.310;2023-04-02T22:29:22;5.13;;;3.10;;
11453;SDS011;5783;55.174;61.310;2023-04-02T22:31:51;3.40;;;2.80;;
11453;SDS011;5783;55.174;61.310;2023-04-02T22:34:20;4.77;;;2.90;;
11453;SDS011;5783;55.174;61.310;2023-04-02T22:36:50;5.37;;;3.03;;
11453;SDS011;5783;55.174;61.310;2023-04-02T22:39:19;4.03;;;2.70;;
11453;SDS011;5783;55.174;61.310;2023-04-02T22:41:48;3.07;;;2.53;;
11453;SDS011;5783;55.174;61.310;2023-04-02T22:44:17;5.30;;;3.30;;
11453;SDS011;5783;55.174;61.310;2023-04-02T22:46:47;4.47;;;2.73;;
11453;SDS011;5783;55.174;61.310;2023-04-02T22:49:16;3.83;;;2.77;;
11453;SDS011;5783;55.174;61.310;2023-04-02T22:51:45;3.87;;;2.87;;
11453;SDS011;5783;55.174;61.310;2023-04-02T22:54:14;4.93;;;2.93;;
11453;SDS011;5783;55.174;61.310;2023-04-02T22:56:43;5.70;;;3.13;;
11453;SDS011;5783;55.174;61.310;2023-04-02T22:59:13;4.87;;;3.23;;
11453;SDS011;5783;55.174;61.310;2023-04-02T23:01:42;4.67;;;3.07;;
11453;SDS011;5783;55.174;61.310;2023-04-02T23:04:11;4.43;;;3.00;;
11453;SDS011;5783;55.174;61.310;2023-04-02T23:06:40;4.60;;;3.10;;
11453;SDS011;5783;55.174;61.310;2023-04-02T23:09:10;6.13;;;3.60;;
11453;SDS011;5783;55.174;61.310;2023-04-02T23:11:39;4.70;;;3.37;;
11453;SDS011;5783;55.174;61.310;2023-04-02T23:14:08;4.87;;;3.37;;
11453;SDS011;5783;55.174;61.310;2023-04-02T23:16:37;5.53;;;3.77;;
11453;SDS011;5783;55.174;61.310;2023-04-02T23:19:06;6.43;;;3.27;;
11453;SDS011;5783;55.174;61.310;2023-04-02T23:21:35;6.63;;;4.03;;
11453;SDS011;5783;55.174;61.310;2023-04-02T23:24:04;5.77;;;3.63;;
11453;SDS011;5783;55.174;61.310;2023-04-02T23:26:33;7.73;;;4.77;;
11453;SDS011;5783;55.174;61.310;2023-04-02T23:29:05;6.10;;;4.30;;
11453;SDS011;5783;55.174;61.310;2023-04-02T23:31:33;7.00;;;4.13;;
11453;SDS011;5783;55.174;61.310;2023-04-02T23:34:03;6.13;;;4.60;;
11453;SDS011;5783;55.174;61.310;2023-04-02T23:36:32;6.93;;;4.70;;
11453;SDS011;5783;55.174;61.310;2023-04-02T23:39:04;6.80;;;4.93;;
11453;SDS011;5783;55.174;61.310;2023-04-02T23:41:35;8.70;;;4.87;;
11453;SDS011;5783;55.174;61.310;2023-04-02T23:44:06;6.70;;;4.83;;
11453;SDS011;5783;55.174;61.310;2023-04-02T23:46:36;9.43;;;5.20;;
11453;SDS011;5783;55.174;61.310;2023-04-02T23:49:06;10.07;;;5.50;;
11453;SDS011;5783;55.174;61.310;2023-04-02T23:51:37;10.03;;;5.83;;
11453;SDS011;5783;55.174;61.310;2023-04-02T23:54:06;12.20;;;5.73;;
11453;SDS011;5783;55.174;61.310;2023-04-02T23:56:37;8.57;;;6.00;;
11453;SDS011;5783;55.174;61.310;2023-04-02T23:59:06;10.37;;;6.10;;
